sensor_id;sensor_type;location;lat;lon;timestamp;P1;durP1;ratioP1;P2;durP2;ratioP2
72924;SDS011;61070;50.794;7.054;2024-03-06T00:00:44;59.65;;;28.75;;
72924;SDS011;61070;50.794;7.054;2024-03-06T00:01:44;47.67;;;27.38;;
72924;SDS011;61070;50.794;7.054;2024-03-06T00:02:45;50.30;;;28.17;;
72924;SDS011;61070;50.794;7.054;2024-03-06T00:03:45;51.38;;;28.88;;
72924;SDS011;61070;50.794;7.054;2024-03-06T00:04:45;56.92;;;30.17;;
72924;SDS011;61070;50.794;7.054;2024-03-06T00:05:47;53.42;;;29.25;;
72924;SDS011;61070;50.794;7.054;2024-03-06T00:06:47;49.00;;;27.88;;
72924;SDS011;61070;50.794;7.054;2024-03-06T00:07:47;50.75;;;28.02;;
72924;SDS011;61070;50.794;7.054;2024-03-06T00:08:48;50.13;;;28.50;;
72924;SDS011;61070;50.794;7.054;2024-03-06T00:09:48;52.10;;;28.33;;
72924;SDS011;61070;50.794;7.054;2024-03-06T00:10:48;45.92;;;26.90;;
72924;SDS011;61070;50.794;7.054;2024-03-06T00:11:48;49.45;;;28.20;;
72924;SDS011;61070;50.794;7.054;2024-03-06T00:12:50;47.22;;;27.40;;
72924;SDS011;61070;50.794;7.054;2024-03-06T00:13:51;44.80;;;26.45;;
72924;SDS011;61070;50.794;7.054;2024-03-06T00:14:51;51.85;;;27.95;;
72924;SDS011;61070;50.794;7.054;2024-03-06T00:15:52;51.67;;;28.02;;
72924;SDS011;61070;50.794;7.054;2024-03-06T00:16:52;43.63;;;25.55;;
72924;SDS011;61070;50.794;7.054;2024-03-06T00:17:52;51.08;;;28.42;;
72924;SDS011;61070;50.794;7.054;2024-03-06T00:18:52;46.03;;;26.88;;
72924;SDS011;61070;50.794;7.054;2024-03-06T00:19:53;46.88;;;26.98;;
72924;SDS011;61070;50.794;7.054;2024-03-06T00:20:53;42.10;;;25.02;;
72924;SDS011;61070;50.794;7.054;2024-03-06T00:21:53;48.78;;;27.02;;
72924;SDS011;61070;50.794;7.054;2024-03-06T00:22:54;51.30;;;26.95;;
72924;SDS011;61070;50.794;7.054;2024-03-06T00:23:54;43.08;;;25.83;;
72924;SDS011;61070;50.794;7.054;2024-03-06T00:24:55;51.72;;;27.02;;
72924;SDS011;61070;50.794;7.054;2024-03-06T00:25:55;44.80;;;27.35;;
72924;SDS011;61070;50.794;7.054;2024-03-06T00:26:56;47.67;;;26.10;;
72924;SDS011;61070;50.794;7.054;2024-03-06T00:27:56;43.80;;;24.73;;
72924;SDS011;61070;50.794;7.054;2024-03-06T00:28:57;43.05;;;24.77;;
72924;SDS011;61070;50.794;7.054;2024-03-06T00:29:57;43.42;;;24.67;;
72924;SDS011;61070;50.794;7.054;2024-03-06T00:30:57;39.33;;;22.45;;
72924;SDS011;61070;50.794;7.054;2024-03-06T00:31:58;48.35;;;25.25;;
72924;SDS011;61070;50.794;7.054;2024-03-06T00:32:58;42.08;;;24.77;;
72924;SDS011;61070;50.794;7.054;2024-03-06T00:33:59;41.85;;;24.60;;
72924;SDS011;61070;50.794;7.054;2024-03-06T00:34:59;41.50;;;23.70;;
72924;SDS011;61070;50.794;7.054;2024-03-06T00:35:59;43.00;;;25.50;;
72924;SDS011;61070;50.794;7.054;2024-03-06T00:36:59;44.30;;;24.85;;
72924;SDS011;61070;50.794;7.054;2024-03-06T00:38:00;45.55;;;23.52;;
72924;SDS011;61070;50.794;7.054;2024-03-06T00:39:03;38.97;;;22.35;;
72924;SDS011;61070;50.794;7.054;2024-03-06T00:40:04;38.20;;;22.35;;
72924;SDS011;61070;50.794;7.054;2024-03-06T00:41:06;41.83;;;23.65;;
72924;SDS011;61070;50.794;7.054;2024-03-06T00:42:06;40.65;;;23.42;;
72924;SDS011;61070;50.794;7.054;2024-03-06T00:43:08;37.45;;;21.70;;
72924;SDS011;61070;50.794;7.054;2024-03-06T00:44:09;37.15;;;20.45;;
72924;SDS011;61070;50.794;7.054;2024-03-06T00:45:09;36.67;;;21.75;;
72924;SDS011;61070;50.794;7.054;2024-03-06T00:46:10;34.15;;;18.85;;
72924;SDS011;61070;50.794;7.054;2024-03-06T00:47:10;33.00;;;18.65;;
72924;SDS011;61070;50.794;7.054;2024-03-06T00:48:10;30.30;;;18.05;;
72924;SDS011;61070;50.794;7.054;2024-03-06T00:49:10;26.58;;;16.70;;
72924;SDS011;61070;50.794;7.054;2024-03-06T00:50:11;27.77;;;16.30;;
72924;SDS011;61070;50.794;7.054;2024-03-06T00:51:11;33.08;;;16.13;;
72924;SDS011;61070;50.794;7.054;2024-03-06T00:52:12;27.15;;;15.35;;
72924;SDS011;61070;50.794;7.054;2024-03-06T00:53:12;22.25;;;13.68;;
72924;SDS011;61070;50.794;7.054;2024-03-06T00:54:12;24.33;;;13.93;;
72924;SDS011;61070;50.794;7.054;2024-03-06T00:55:13;22.63;;;13.57;;
72924;SDS011;61070;50.794;7.054;2024-03-06T00:56:13;17.83;;;10.45;;
72924;SDS011;61070;50.794;7.054;2024-03-06T00:57:13;19.10;;;12.43;;
72924;SDS011;61070;50.794;7.054;2024-03-06T00:58:14;19.95;;;11.23;;
72924;SDS011;61070;50.794;7.054;2024-03-06T00:59:14;19.58;;;9.40;;
72924;SDS011;61070;50.794;7.054;2024-03-06T01:00:14;14.73;;;7.05;;
72924;SDS011;61070;50.794;7.054;2024-03-06T01:01:16;11.40;;;6.78;;
72924;SDS011;61070;50.794;7.054;2024-03-06T01:02:16;13.07;;;7.18;;
72924;SDS011;61070;50.794;7.054;2024-03-06T01:03:16;9.00;;;5.10;;
72924;SDS011;61070;50.794;7.054;2024-03-06T01:04:17;8.02;;;4.80;;
72924;SDS011;61070;50.794;7.054;2024-03-06T01:05:17;8.25;;;4.45;;
72924;SDS011;61070;50.794;7.054;2024-03-06T01:06:17;7.65;;;4.57;;
72924;SDS011;61070;50.794;7.054;2024-03-06T01:07:17;7.45;;;4.72;;
72924;SDS011;61070;50.794;7.054;2024-03-06T01:08:18;5.63;;;3.83;;
72924;SDS011;61070;50.794;7.054;2024-03-06T01:09:19;6.88;;;3.88;;
72924;SDS011;61070;50.794;7.054;2024-03-06T01:10:19;8.07;;;4.53;;
72924;SDS011;61070;50.794;7.054;2024-03-06T01:11:20;7.95;;;3.97;;
72924;SDS011;61070;50.794;7.054;2024-03-06T01:12:20;8.85;;;4.05;;
72924;SDS011;61070;50.794;7.054;2024-03-06T01:13:21;6.93;;;4.07;;
72924;SDS011;61070;50.794;7.054;2024-03-06T01:14:21;7.85;;;4.22;;
72924;SDS011;61070;50.794;7.054;2024-03-06T01:15:21;7.18;;;4.22;;
72924;SDS011;61070;50.794;7.054;2024-03-06T01:16:21;9.95;;;4.63;;
72924;SDS011;61070;50.794;7.054;2024-03-06T01:17:22;7.28;;;4.10;;
72924;SDS011;61070;50.794;7.054;2024-03-06T01:18:22;9.77;;;3.78;;
72924;SDS011;61070;50.794;7.054;2024-03-06T01:19:23;7.13;;;4.20;;
72924;SDS011;61070;50.794;7.054;2024-03-06T01:20:23;6.97;;;3.67;;
72924;SDS011;61070;50.794;7.054;2024-03-06T01:21:24;7.43;;;4.35;;
72924;SDS011;61070;50.794;7.054;2024-03-06T01:22:25;6.63;;;3.50;;
72924;SDS011;61070;50.794;7.054;2024-03-06T01:23:25;7.70;;;4.20;;
72924;SDS011;61070;50.794;7.054;2024-03-06T01:24:25;5.95;;;3.90;;
72924;SDS011;61070;50.794;7.054;2024-03-06T01:25:25;5.22;;;3.53;;
72924;SDS011;61070;50.794;7.054;2024-03-06T01:26:26;11.90;;;4.15;;
72924;SDS011;61070;50.794;7.054;2024-03-06T01:27:26;5.75;;;3.60;;
72924;SDS011;61070;50.794;7.054;2024-03-06T01:28:27;6.32;;;3.40;;
72924;SDS011;61070;50.794;7.054;2024-03-06T01:29:30;7.45;;;4.00;;
72924;SDS011;61070;50.794;7.054;2024-03-06T01:30:30;5.13;;;3.13;;
72924;SDS011;61070;50.794;7.054;2024-03-06T01:31:31;5.07;;;3.55;;
72924;SDS011;61070;50.794;7.054;2024-03-06T01:32:31;7.18;;;3.67;;
72924;SDS011;61070;50.794;7.054;2024-03-06T01:33:33;5.63;;;3.50;;
72924;SDS011;61070;50.794;7.054;2024-03-06T01:34:33;7.55;;;3.95;;
72924;SDS011;61070;50.794;7.054;2024-03-06T01:35:33;6.53;;;3.65;;
72924;SDS011;61070;50.794;7.054;2024-03-06T01:36:33;8.55;;;3.88;;
72924;SDS011;61070;50.794;7.054;2024-03-06T01:37:34;5.00;;;3.20;;
72924;SDS011;61070;50.794;7.054;2024-03-06T01:38:34;6.47;;;3.30;;
72924;SDS011;61070;50.794;7.054;2024-03-06T01:39:35;5.63;;;3.53;;
72924;SDS011;61070;50.794;7.054;2024-03-06T01:40:36;5.88;;;2.97;;
72924;SDS011;61070;50.794;7.054;2024-03-06T01:41:36;4.85;;;3.05;;
72924;SDS011;61070;50.794;7.054;2024-03-06T01:42:36;5.43;;;2.72;;
72924;SDS011;61070;50.794;7.054;2024-03-06T01:43:37;6.20;;;3.28;;
72924;SDS011;61070;50.794;7.054;2024-03-06T01:44:41;7.57;;;3.45;;
72924;SDS011;61070;50.794;7.054;2024-03-06T01:45:41;5.18;;;2.47;;
72924;SDS011;61070;50.794;7.054;2024-03-06T01:46:42;5.28;;;3.00;;
72924;SDS011;61070;50.794;7.054;2024-03-06T01:47:43;5.40;;;3.15;;
72924;SDS011;61070;50.794;7.054;2024-03-06T01:48:43;10.13;;;3.35;;
72924;SDS011;61070;50.794;7.054;2024-03-06T01:49:44;6.90;;;3.15;;
72924;SDS011;61070;50.794;7.054;2024-03-06T01:50:44;5.43;;;2.65;;
72924;SDS011;61070;50.794;7.054;2024-03-06T01:51:49;4.72;;;2.53;;
72924;SDS011;61070;50.794;7.054;2024-03-06T01:52:52;5.93;;;2.20;;
72924;SDS011;61070;50.794;7.054;2024-03-06T01:53:53;4.85;;;2.22;;
72924;SDS011;61070;50.794;7.054;2024-03-06T01:54:54;5.65;;;2.65;;
72924;SDS011;61070;50.794;7.054;2024-03-06T01:55:54;5.32;;;2.72;;
72924;SDS011;61070;50.794;7.054;2024-03-06T01:56:55;7.28;;;3.03;;
72924;SDS011;61070;50.794;7.054;2024-03-06T01:57:56;5.25;;;2.45;;
72924;SDS011;61070;50.794;7.054;2024-03-06T01:58:56;6.45;;;2.53;;
72924;SDS011;61070;50.794;7.054;2024-03-06T01:59:57;4.90;;;2.88;;
72924;SDS011;61070;50.794;7.054;2024-03-06T02:00:57;4.07;;;2.60;;
72924;SDS011;61070;50.794;7.054;2024-03-06T02:01:58;5.20;;;2.63;;
72924;SDS011;61070;50.794;7.054;2024-03-06T02:03:01;11.75;;;3.50;;
72924;SDS011;61070;50.794;7.054;2024-03-06T02:04:01;7.65;;;3.63;;
72924;SDS011;61070;50.794;7.054;2024-03-06T02:05:02;3.60;;;2.60;;
72924;SDS011;61070;50.794;7.054;2024-03-06T02:06:03;6.03;;;3.08;;
72924;SDS011;61070;50.794;7.054;2024-03-06T02:07:08;4.85;;;2.53;;
72924;SDS011;61070;50.794;7.054;2024-03-06T02:08:12;5.13;;;2.55;;
72924;SDS011;61070;50.794;7.054;2024-03-06T02:09:13;3.63;;;2.70;;
72924;SDS011;61070;50.794;7.054;2024-03-06T02:10:14;7.72;;;3.17;;
72924;SDS011;61070;50.794;7.054;2024-03-06T02:11:14;7.07;;;3.03;;
72924;SDS011;61070;50.794;7.054;2024-03-06T02:12:16;9.50;;;2.72;;
72924;SDS011;61070;50.794;7.054;2024-03-06T02:13:17;7.00;;;3.28;;
72924;SDS011;61070;50.794;7.054;2024-03-06T02:14:18;4.97;;;3.13;;
72924;SDS011;61070;50.794;7.054;2024-03-06T02:15:18;7.97;;;3.10;;
72924;SDS011;61070;50.794;7.054;2024-03-06T02:16:19;5.88;;;2.75;;
72924;SDS011;61070;50.794;7.054;2024-03-06T02:17:19;5.43;;;2.53;;
72924;SDS011;61070;50.794;7.054;2024-03-06T02:18:19;9.30;;;2.67;;
72924;SDS011;61070;50.794;7.054;2024-03-06T02:19:20;6.15;;;2.63;;
72924;SDS011;61070;50.794;7.054;2024-03-06T02:20:22;6.30;;;2.47;;
72924;SDS011;61070;50.794;7.054;2024-03-06T02:21:24;7.20;;;2.85;;
72924;SDS011;61070;50.794;7.054;2024-03-06T02:22:25;4.00;;;2.17;;
72924;SDS011;61070;50.794;7.054;2024-03-06T02:23:25;3.80;;;2.25;;
72924;SDS011;61070;50.794;7.054;2024-03-06T02:24:25;6.05;;;2.97;;
72924;SDS011;61070;50.794;7.054;2024-03-06T02:25:25;6.25;;;2.63;;
72924;SDS011;61070;50.794;7.054;2024-03-06T02:26:26;3.90;;;2.03;;
72924;SDS011;61070;50.794;7.054;2024-03-06T02:27:26;7.22;;;2.42;;
72924;SDS011;61070;50.794;7.054;2024-03-06T02:28:26;4.03;;;2.58;;
72924;SDS011;61070;50.794;7.054;2024-03-06T02:29:27;3.50;;;2.13;;
72924;SDS011;61070;50.794;7.054;2024-03-06T02:30:27;6.35;;;2.58;;
72924;SDS011;61070;50.794;7.054;2024-03-06T02:31:27;3.80;;;2.42;;
72924;SDS011;61070;50.794;7.054;2024-03-06T02:32:28;4.50;;;2.15;;
72924;SDS011;61070;50.794;7.054;2024-03-06T02:33:28;3.65;;;2.55;;
72924;SDS011;61070;50.794;7.054;2024-03-06T02:34:29;3.63;;;2.30;;
72924;SDS011;61070;50.794;7.054;2024-03-06T02:35:32;3.05;;;2.20;;
72924;SDS011;61070;50.794;7.054;2024-03-06T02:36:32;4.22;;;2.40;;
72924;SDS011;61070;50.794;7.054;2024-03-06T02:37:32;5.22;;;2.53;;
72924;SDS011;61070;50.794;7.054;2024-03-06T02:38:33;5.15;;;2.70;;
72924;SDS011;61070;50.794;7.054;2024-03-06T02:39:34;4.35;;;2.40;;
72924;SDS011;61070;50.794;7.054;2024-03-06T02:40:34;3.50;;;2.42;;
72924;SDS011;61070;50.794;7.054;2024-03-06T02:41:38;4.32;;;2.30;;
72924;SDS011;61070;50.794;7.054;2024-03-06T02:42:38;6.15;;;2.50;;
72924;SDS011;61070;50.794;7.054;2024-03-06T02:43:41;4.65;;;2.55;;
72924;SDS011;61070;50.794;7.054;2024-03-06T02:44:42;4.43;;;2.63;;
72924;SDS011;61070;50.794;7.054;2024-03-06T02:45:43;5.55;;;2.35;;
72924;SDS011;61070;50.794;7.054;2024-03-06T02:46:47;5.82;;;2.38;;
72924;SDS011;61070;50.794;7.054;2024-03-06T02:47:48;4.13;;;2.70;;
72924;SDS011;61070;50.794;7.054;2024-03-06T02:48:49;6.18;;;2.78;;
72924;SDS011;61070;50.794;7.054;2024-03-06T02:49:49;5.68;;;3.00;;
72924;SDS011;61070;50.794;7.054;2024-03-06T02:50:49;4.30;;;2.30;;
72924;SDS011;61070;50.794;7.054;2024-03-06T02:51:50;4.13;;;2.40;;
72924;SDS011;61070;50.794;7.054;2024-03-06T02:52:51;5.88;;;3.25;;
72924;SDS011;61070;50.794;7.054;2024-03-06T02:53:53;3.58;;;2.60;;
72924;SDS011;61070;50.794;7.054;2024-03-06T02:54:53;6.32;;;3.47;;
72924;SDS011;61070;50.794;7.054;2024-03-06T02:55:53;6.95;;;3.03;;
72924;SDS011;61070;50.794;7.054;2024-03-06T02:56:54;5.20;;;3.40;;
72924;SDS011;61070;50.794;7.054;2024-03-06T02:57:54;6.35;;;2.80;;
72924;SDS011;61070;50.794;7.054;2024-03-06T02:58:54;6.40;;;2.95;;
72924;SDS011;61070;50.794;7.054;2024-03-06T02:59:55;6.07;;;3.35;;
72924;SDS011;61070;50.794;7.054;2024-03-06T03:00:56;3.75;;;2.35;;
72924;SDS011;61070;50.794;7.054;2024-03-06T03:01:56;4.85;;;2.85;;
72924;SDS011;61070;50.794;7.054;2024-03-06T03:02:57;9.43;;;3.33;;
72924;SDS011;61070;50.794;7.054;2024-03-06T03:03:57;5.35;;;2.88;;
72924;SDS011;61070;50.794;7.054;2024-03-06T03:04:58;4.75;;;3.10;;
72924;SDS011;61070;50.794;7.054;2024-03-06T03:05:58;3.80;;;2.72;;
72924;SDS011;61070;50.794;7.054;2024-03-06T03:06:59;5.40;;;2.92;;
72924;SDS011;61070;50.794;7.054;2024-03-06T03:07:59;3.55;;;2.92;;
72924;SDS011;61070;50.794;7.054;2024-03-06T03:08:59;5.00;;;3.00;;
72924;SDS011;61070;50.794;7.054;2024-03-06T03:10:00;4.57;;;2.83;;
72924;SDS011;61070;50.794;7.054;2024-03-06T03:11:00;6.88;;;3.20;;
72924;SDS011;61070;50.794;7.054;2024-03-06T03:12:00;6.30;;;3.00;;
72924;SDS011;61070;50.794;7.054;2024-03-06T03:13:01;6.82;;;3.10;;
72924;SDS011;61070;50.794;7.054;2024-03-06T03:14:01;4.88;;;2.50;;
72924;SDS011;61070;50.794;7.054;2024-03-06T03:15:02;5.25;;;2.90;;
72924;SDS011;61070;50.794;7.054;2024-03-06T03:16:02;4.00;;;2.60;;
72924;SDS011;61070;50.794;7.054;2024-03-06T03:17:04;6.65;;;3.17;;
72924;SDS011;61070;50.794;7.054;2024-03-06T03:18:07;5.18;;;3.15;;
72924;SDS011;61070;50.794;7.054;2024-03-06T03:19:07;4.10;;;2.83;;
72924;SDS011;61070;50.794;7.054;2024-03-06T03:20:11;4.75;;;3.13;;
72924;SDS011;61070;50.794;7.054;2024-03-06T03:21:11;6.72;;;2.67;;
72924;SDS011;61070;50.794;7.054;2024-03-06T03:22:12;6.97;;;3.00;;
72924;SDS011;61070;50.794;7.054;2024-03-06T03:23:13;4.40;;;2.63;;
72924;SDS011;61070;50.794;7.054;2024-03-06T03:24:15;8.43;;;3.22;;
72924;SDS011;61070;50.794;7.054;2024-03-06T03:25:16;4.63;;;2.83;;
72924;SDS011;61070;50.794;7.054;2024-03-06T03:26:16;3.95;;;3.00;;
72924;SDS011;61070;50.794;7.054;2024-03-06T03:27:16;3.90;;;2.70;;
72924;SDS011;61070;50.794;7.054;2024-03-06T03:28:17;3.05;;;2.50;;
72924;SDS011;61070;50.794;7.054;2024-03-06T03:29:17;5.13;;;2.55;;
72924;SDS011;61070;50.794;7.054;2024-03-06T03:30:18;5.75;;;2.60;;
72924;SDS011;61070;50.794;7.054;2024-03-06T03:31:21;4.63;;;2.90;;
72924;SDS011;61070;50.794;7.054;2024-03-06T03:32:21;4.55;;;2.65;;
72924;SDS011;61070;50.794;7.054;2024-03-06T03:33:22;6.07;;;3.58;;
72924;SDS011;61070;50.794;7.054;2024-03-06T03:34:22;5.95;;;3.20;;
72924;SDS011;61070;50.794;7.054;2024-03-06T03:35:23;3.65;;;2.63;;
72924;SDS011;61070;50.794;7.054;2024-03-06T03:36:25;5.32;;;2.55;;
72924;SDS011;61070;50.794;7.054;2024-03-06T03:37:25;3.95;;;3.17;;
72924;SDS011;61070;50.794;7.054;2024-03-06T03:38:25;5.18;;;2.72;;
72924;SDS011;61070;50.794;7.054;2024-03-06T03:39:25;4.55;;;3.00;;
72924;SDS011;61070;50.794;7.054;2024-03-06T03:40:27;5.88;;;3.17;;
72924;SDS011;61070;50.794;7.054;2024-03-06T03:41:27;7.20;;;2.63;;
72924;SDS011;61070;50.794;7.054;2024-03-06T03:42:27;8.77;;;3.30;;
72924;SDS011;61070;50.794;7.054;2024-03-06T03:43:28;5.97;;;3.58;;
72924;SDS011;61070;50.794;7.054;2024-03-06T03:44:28;6.50;;;3.33;;
72924;SDS011;61070;50.794;7.054;2024-03-06T03:45:28;5.30;;;3.08;;
72924;SDS011;61070;50.794;7.054;2024-03-06T03:46:28;9.63;;;3.60;;
72924;SDS011;61070;50.794;7.054;2024-03-06T03:47:29;4.68;;;2.92;;
72924;SDS011;61070;50.794;7.054;2024-03-06T03:48:29;4.80;;;2.83;;
72924;SDS011;61070;50.794;7.054;2024-03-06T03:49:30;6.35;;;3.63;;
72924;SDS011;61070;50.794;7.054;2024-03-06T03:50:30;5.70;;;3.00;;
72924;SDS011;61070;50.794;7.054;2024-03-06T03:51:31;7.57;;;3.30;;
72924;SDS011;61070;50.794;7.054;2024-03-06T03:52:31;5.05;;;3.25;;
72924;SDS011;61070;50.794;7.054;2024-03-06T03:53:31;9.30;;;3.20;;
72924;SDS011;61070;50.794;7.054;2024-03-06T03:54:31;6.35;;;3.25;;
72924;SDS011;61070;50.794;7.054;2024-03-06T03:55:32;3.97;;;2.88;;
72924;SDS011;61070;50.794;7.054;2024-03-06T03:56:32;5.57;;;3.00;;
72924;SDS011;61070;50.794;7.054;2024-03-06T03:57:33;6.32;;;3.38;;
72924;SDS011;61070;50.794;7.054;2024-03-06T03:58:33;7.20;;;3.22;;
72924;SDS011;61070;50.794;7.054;2024-03-06T03:59:34;4.20;;;3.03;;
72924;SDS011;61070;50.794;7.054;2024-03-06T04:00:34;6.32;;;3.10;;
72924;SDS011;61070;50.794;7.054;2024-03-06T04:01:34;5.40;;;3.00;;
72924;SDS011;61070;50.794;7.054;2024-03-06T04:02:34;8.38;;;2.90;;
72924;SDS011;61070;50.794;7.054;2024-03-06T04:03:35;7.70;;;3.20;;
72924;SDS011;61070;50.794;7.054;2024-03-06T04:04:36;5.03;;;2.85;;
72924;SDS011;61070;50.794;7.054;2024-03-06T04:05:36;3.33;;;2.67;;
72924;SDS011;61070;50.794;7.054;2024-03-06T04:06:37;5.07;;;3.05;;
72924;SDS011;61070;50.794;7.054;2024-03-06T04:07:37;4.78;;;2.58;;
72924;SDS011;61070;50.794;7.054;2024-03-06T04:08:37;4.60;;;2.83;;
72924;SDS011;61070;50.794;7.054;2024-03-06T04:09:38;5.70;;;3.20;;
72924;SDS011;61070;50.794;7.054;2024-03-06T04:10:38;4.60;;;2.97;;
72924;SDS011;61070;50.794;7.054;2024-03-06T04:11:39;5.68;;;3.20;;
72924;SDS011;61070;50.794;7.054;2024-03-06T04:12:39;6.78;;;2.78;;
72924;SDS011;61070;50.794;7.054;2024-03-06T04:13:42;7.30;;;2.50;;
72924;SDS011;61070;50.794;7.054;2024-03-06T04:14:46;6.53;;;2.88;;
72924;SDS011;61070;50.794;7.054;2024-03-06T04:15:46;4.95;;;2.88;;
72924;SDS011;61070;50.794;7.054;2024-03-06T04:16:47;4.15;;;2.92;;
72924;SDS011;61070;50.794;7.054;2024-03-06T04:17:47;4.90;;;3.17;;
72924;SDS011;61070;50.794;7.054;2024-03-06T04:18:47;4.38;;;2.47;;
72924;SDS011;61070;50.794;7.054;2024-03-06T04:19:48;6.47;;;2.70;;
72924;SDS011;61070;50.794;7.054;2024-03-06T04:20:48;5.95;;;2.35;;
72924;SDS011;61070;50.794;7.054;2024-03-06T04:21:48;3.55;;;2.70;;
72924;SDS011;61070;50.794;7.054;2024-03-06T04:22:49;4.90;;;2.67;;
72924;SDS011;61070;50.794;7.054;2024-03-06T04:23:50;6.22;;;3.00;;
72924;SDS011;61070;50.794;7.054;2024-03-06T04:24:51;3.65;;;2.55;;
72924;SDS011;61070;50.794;7.054;2024-03-06T04:25:51;4.65;;;2.88;;
72924;SDS011;61070;50.794;7.054;2024-03-06T04:26:52;3.03;;;2.30;;
72924;SDS011;61070;50.794;7.054;2024-03-06T04:27:52;4.25;;;2.83;;
72924;SDS011;61070;50.794;7.054;2024-03-06T04:28:52;5.97;;;2.65;;
72924;SDS011;61070;50.794;7.054;2024-03-06T04:29:53;6.88;;;2.47;;
72924;SDS011;61070;50.794;7.054;2024-03-06T04:30:53;7.40;;;2.60;;
72924;SDS011;61070;50.794;7.054;2024-03-06T04:31:53;5.90;;;2.80;;
72924;SDS011;61070;50.794;7.054;2024-03-06T04:32:54;4.82;;;2.75;;
72924;SDS011;61070;50.794;7.054;2024-03-06T04:33:55;3.00;;;2.38;;
72924;SDS011;61070;50.794;7.054;2024-03-06T04:34:55;5.93;;;2.78;;
72924;SDS011;61070;50.794;7.054;2024-03-06T04:35:56;6.30;;;2.53;;
72924;SDS011;61070;50.794;7.054;2024-03-06T04:36:56;3.58;;;3.15;;
72924;SDS011;61070;50.794;7.054;2024-03-06T04:37:56;3.28;;;2.33;;
72924;SDS011;61070;50.794;7.054;2024-03-06T04:38:57;5.07;;;2.90;;
72924;SDS011;61070;50.794;7.054;2024-03-06T04:39:57;4.55;;;2.78;;
72924;SDS011;61070;50.794;7.054;2024-03-06T04:40:57;4.63;;;2.80;;
72924;SDS011;61070;50.794;7.054;2024-03-06T04:41:57;4.40;;;2.53;;
72924;SDS011;61070;50.794;7.054;2024-03-06T04:42:58;8.95;;;2.83;;
72924;SDS011;61070;50.794;7.054;2024-03-06T04:43:58;4.35;;;2.90;;
72924;SDS011;61070;50.794;7.054;2024-03-06T04:45:00;4.20;;;3.08;;
72924;SDS011;61070;50.794;7.054;2024-03-06T04:46:00;3.22;;;2.60;;
72924;SDS011;61070;50.794;7.054;2024-03-06T04:47:01;6.53;;;3.20;;
72924;SDS011;61070;50.794;7.054;2024-03-06T04:48:01;5.18;;;2.95;;
72924;SDS011;61070;50.794;7.054;2024-03-06T04:49:02;4.93;;;2.70;;
72924;SDS011;61070;50.794;7.054;2024-03-06T04:50:03;6.53;;;3.10;;
72924;SDS011;61070;50.794;7.054;2024-03-06T04:51:03;7.00;;;3.05;;
72924;SDS011;61070;50.794;7.054;2024-03-06T04:52:04;5.00;;;2.78;;
72924;SDS011;61070;50.794;7.054;2024-03-06T04:53:04;5.97;;;2.92;;
72924;SDS011;61070;50.794;7.054;2024-03-06T04:54:04;4.13;;;2.80;;
72924;SDS011;61070;50.794;7.054;2024-03-06T04:55:05;3.78;;;2.58;;
72924;SDS011;61070;50.794;7.054;2024-03-06T04:56:07;6.95;;;3.00;;
72924;SDS011;61070;50.794;7.054;2024-03-06T04:57:07;5.60;;;3.10;;
72924;SDS011;61070;50.794;7.054;2024-03-06T04:58:07;4.78;;;2.70;;
72924;SDS011;61070;50.794;7.054;2024-03-06T04:59:08;5.18;;;2.72;;
72924;SDS011;61070;50.794;7.054;2024-03-06T05:00:09;4.35;;;2.90;;
72924;SDS011;61070;50.794;7.054;2024-03-06T05:01:11;4.80;;;3.17;;
72924;SDS011;61070;50.794;7.054;2024-03-06T05:02:12;5.53;;;3.08;;
72924;SDS011;61070;50.794;7.054;2024-03-06T05:03:12;6.97;;;3.67;;
72924;SDS011;61070;50.794;7.054;2024-03-06T05:04:13;5.18;;;3.10;;
72924;SDS011;61070;50.794;7.054;2024-03-06T05:05:13;6.18;;;3.00;;
72924;SDS011;61070;50.794;7.054;2024-03-06T05:06:13;7.05;;;3.00;;
72924;SDS011;61070;50.794;7.054;2024-03-06T05:07:13;6.93;;;3.28;;
72924;SDS011;61070;50.794;7.054;2024-03-06T05:08:14;10.45;;;3.22;;
72924;SDS011;61070;50.794;7.054;2024-03-06T05:09:14;5.47;;;3.00;;
72924;SDS011;61070;50.794;7.054;2024-03-06T05:10:15;7.25;;;2.95;;
72924;SDS011;61070;50.794;7.054;2024-03-06T05:11:16;6.35;;;2.83;;
72924;SDS011;61070;50.794;7.054;2024-03-06T05:12:16;5.82;;;3.00;;
72924;SDS011;61070;50.794;7.054;2024-03-06T05:13:16;8.98;;;3.00;;
72924;SDS011;61070;50.794;7.054;2024-03-06T05:14:17;6.55;;;3.17;;
72924;SDS011;61070;50.794;7.054;2024-03-06T05:15:17;7.93;;;3.35;;
72924;SDS011;61070;50.794;7.054;2024-03-06T05:16:19;5.22;;;3.10;;
72924;SDS011;61070;50.794;7.054;2024-03-06T05:17:22;4.57;;;2.83;;
72924;SDS011;61070;50.794;7.054;2024-03-06T05:18:23;5.53;;;3.15;;
72924;SDS011;61070;50.794;7.054;2024-03-06T05:19:23;6.32;;;3.00;;
72924;SDS011;61070;50.794;7.054;2024-03-06T05:20:30;5.35;;;3.22;;
72924;SDS011;61070;50.794;7.054;2024-03-06T05:21:33;7.80;;;3.53;;
72924;SDS011;61070;50.794;7.054;2024-03-06T05:22:35;3.90;;;3.28;;
72924;SDS011;61070;50.794;7.054;2024-03-06T05:23:35;4.78;;;2.97;;
72924;SDS011;61070;50.794;7.054;2024-03-06T05:24:36;5.22;;;3.00;;
72924;SDS011;61070;50.794;7.054;2024-03-06T05:25:37;7.88;;;3.85;;
72924;SDS011;61070;50.794;7.054;2024-03-06T05:26:37;6.45;;;3.03;;
72924;SDS011;61070;50.794;7.054;2024-03-06T05:27:37;5.72;;;3.13;;
72924;SDS011;61070;50.794;7.054;2024-03-06T05:28:38;7.60;;;3.15;;
72924;SDS011;61070;50.794;7.054;2024-03-06T05:29:38;4.05;;;2.92;;
72924;SDS011;61070;50.794;7.054;2024-03-06T05:30:39;8.25;;;3.10;;
72924;SDS011;61070;50.794;7.054;2024-03-06T05:31:39;6.05;;;3.05;;
72924;SDS011;61070;50.794;7.054;2024-03-06T05:32:40;6.18;;;3.10;;
72924;SDS011;61070;50.794;7.054;2024-03-06T05:33:41;5.55;;;3.20;;
72924;SDS011;61070;50.794;7.054;2024-03-06T05:34:41;7.47;;;3.10;;
72924;SDS011;61070;50.794;7.054;2024-03-06T05:35:42;5.72;;;2.92;;
72924;SDS011;61070;50.794;7.054;2024-03-06T05:36:43;3.60;;;2.80;;
72924;SDS011;61070;50.794;7.054;2024-03-06T05:37:43;6.03;;;2.70;;
72924;SDS011;61070;50.794;7.054;2024-03-06T05:38:44;4.20;;;2.80;;
72924;SDS011;61070;50.794;7.054;2024-03-06T05:39:45;5.53;;;2.67;;
72924;SDS011;61070;50.794;7.054;2024-03-06T05:40:45;4.38;;;2.97;;
72924;SDS011;61070;50.794;7.054;2024-03-06T05:41:46;4.65;;;3.03;;
72924;SDS011;61070;50.794;7.054;2024-03-06T05:42:46;4.07;;;3.00;;
72924;SDS011;61070;50.794;7.054;2024-03-06T05:43:46;4.90;;;2.53;;
72924;SDS011;61070;50.794;7.054;2024-03-06T05:44:47;6.70;;;3.30;;
72924;SDS011;61070;50.794;7.054;2024-03-06T05:45:48;4.65;;;3.10;;
72924;SDS011;61070;50.794;7.054;2024-03-06T05:46:49;7.85;;;3.33;;
72924;SDS011;61070;50.794;7.054;2024-03-06T05:47:49;5.45;;;3.08;;
72924;SDS011;61070;50.794;7.054;2024-03-06T05:48:50;8.20;;;3.22;;
72924;SDS011;61070;50.794;7.054;2024-03-06T05:49:51;8.20;;;3.95;;
72924;SDS011;61070;50.794;7.054;2024-03-06T05:50:51;6.97;;;3.28;;
72924;SDS011;61070;50.794;7.054;2024-03-06T05:51:51;5.65;;;3.33;;
72924;SDS011;61070;50.794;7.054;2024-03-06T05:52:52;4.18;;;3.10;;
72924;SDS011;61070;50.794;7.054;2024-03-06T05:53:52;8.68;;;3.28;;
72924;SDS011;61070;50.794;7.054;2024-03-06T05:54:53;5.53;;;3.50;;
72924;SDS011;61070;50.794;7.054;2024-03-06T05:55:53;9.25;;;4.45;;
72924;SDS011;61070;50.794;7.054;2024-03-06T05:56:54;8.27;;;3.97;;
72924;SDS011;61070;50.794;7.054;2024-03-06T05:57:54;8.63;;;4.05;;
72924;SDS011;61070;50.794;7.054;2024-03-06T05:58:55;7.53;;;4.07;;
72924;SDS011;61070;50.794;7.054;2024-03-06T05:59:55;8.18;;;4.25;;
72924;SDS011;61070;50.794;7.054;2024-03-06T06:00:55;7.32;;;4.10;;
72924;SDS011;61070;50.794;7.054;2024-03-06T06:01:56;5.68;;;3.58;;
72924;SDS011;61070;50.794;7.054;2024-03-06T06:02:56;10.02;;;3.97;;
72924;SDS011;61070;50.794;7.054;2024-03-06T06:03:57;10.10;;;3.58;;